sensor_id;sensor_type;location;lat;lon;timestamp;temperature;humidity
30467;DHT22;17258;52.560;13.046;2023-08-06T00:08:16;22.30;53.20
30467;DHT22;17258;52.560;13.046;2023-08-06T00:18:17;22.30;53.40
30467;DHT22;17258;52.560;13.046;2023-08-06T00:28:18;22.30;53.50
30467;DHT22;17258;52.560;13.046;2023-08-06T00:38:18;22.20;53.70
30467;DHT22;17258;52.560;13.046;2023-08-06T00:48:19;22.20;53.70
30467;DHT22;17258;52.560;13.046;2023-08-06T00:58:21;22.20;53.90
30467;DHT22;17258;52.560;13.046;2023-08-06T01:08:54;22.20;54.00
30467;DHT22;17258;52.560;13.046;2023-08-06T01:18:59;22.20;54.70
30467;DHT22;17258;52.560;13.046;2023-08-06T01:39:10;22.20;54.80
30467;DHT22;17258;52.560;13.046;2023-08-06T01:49:11;22.20;54.60
30467;DHT22;17258;52.560;13.046;2023-08-06T01:59:11;22.20;54.80
30467;DHT22;17258;52.560;13.046;2023-08-06T02:09:12;22.20;54.90
30467;DHT22;17258;52.560;13.046;2023-08-06T02:19:13;22.20;55.00
30467;DHT22;17258;52.560;13.046;2023-08-06T02:29:13;22.20;55.10
30467;DHT22;17258;52.560;13.046;2023-08-06T02:39:14;22.20;55.10
30467;DHT22;17258;52.560;13.046;2023-08-06T02:49:15;22.20;55.20
30467;DHT22;17258;52.560;13.046;2023-08-06T02:59:15;22.30;55.40
30467;DHT22;17258;52.560;13.046;2023-08-06T03:09:16;22.30;55.40
30467;DHT22;17258;52.560;13.046;2023-08-06T03:19:17;22.30;55.50
30467;DHT22;17258;52.560;13.046;2023-08-06T03:29:18;22.30;55.60
30467;DHT22;17258;52.560;13.046;2023-08-06T03:39:19;22.30;55.70
30467;DHT22;17258;52.560;13.046;2023-08-06T03:49:19;22.30;55.70
30467;DHT22;17258;52.560;13.046;2023-08-06T03:59:20;22.30;55.90
30467;DHT22;17258;52.560;13.046;2023-08-06T04:09:21;22.30;55.90
30467;DHT22;17258;52.560;13.046;2023-08-06T04:19:21;22.30;56.10
30467;DHT22;17258;52.560;13.046;2023-08-06T04:29:22;22.30;56.20
30467;DHT22;17258;52.560;13.046;2023-08-06T04:39:23;22.20;56.20
30467;DHT22;17258;52.560;13.046;2023-08-06T04:49:24;22.30;56.40
30467;DHT22;17258;52.560;13.046;2023-08-06T04:59:25;22.30;56.60
30467;DHT22;17258;52.560;13.046;2023-08-06T05:09:26;22.30;56.60
30467;DHT22;17258;52.560;13.046;2023-08-06T05:19:26;22.30;56.80
30467;DHT22;17258;52.560;13.046;2023-08-06T05:29:27;22.30;56.90
30467;DHT22;17258;52.560;13.046;2023-08-06T05:39:27;22.30;56.90
30467;DHT22;17258;52.560;13.046;2023-08-06T05:49:28;22.30;57.10
30467;DHT22;17258;52.560;13.046;2023-08-06T05:59:29;22.30;57.20
30467;DHT22;17258;52.560;13.046;2023-08-06T06:09:29;22.40;57.40
30467;DHT22;17258;52.560;13.046;2023-08-06T06:19:30;22.40;57.40
30467;DHT22;17258;52.560;13.046;2023-08-06T06:29:31;22.60;57.50
30467;DHT22;17258;52.560;13.046;2023-08-06T06:39:31;22.70;57.50
30467;DHT22;17258;52.560;13.046;2023-08-06T06:49:32;22.70;57.50
30467;DHT22;17258;52.560;13.046;2023-08-06T06:59:33;22.90;57.50
30467;DHT22;17258;52.560;13.046;2023-08-06T07:09:33;22.90;57.60
30467;DHT22;17258;52.560;13.046;2023-08-06T07:19:34;23.00;57.50
30467;DHT22;17258;52.560;13.046;2023-08-06T07:29:34;23.10;57.50
30467;DHT22;17258;52.560;13.046;2023-08-06T07:39:35;23.10;57.60
30467;DHT22;17258;52.560;13.046;2023-08-06T07:49:38;23.20;57.70
30467;DHT22;17258;52.560;13.046;2023-08-06T07:59:38;23.30;57.80
30467;DHT22;17258;52.560;13.046;2023-08-06T08:09:39;23.40;57.80
30467;DHT22;17258;52.560;13.046;2023-08-06T08:19:40;23.50;57.80
30467;DHT22;17258;52.560;13.046;2023-08-06T08:29:41;23.60;57.70
30467;DHT22;17258;52.560;13.046;2023-08-06T08:39:42;23.70;57.60
30467;DHT22;17258;52.560;13.046;2023-08-06T08:49:43;23.80;57.50
30467;DHT22;17258;52.560;13.046;2023-08-06T08:59:44;23.90;57.60
30467;DHT22;17258;52.560;13.046;2023-08-06T09:09:48;24.00;57.40
30467;DHT22;17258;52.560;13.046;2023-08-06T09:19:50;24.00;57.30
30467;DHT22;17258;52.560;13.046;2023-08-06T09:29:50;24.00;57.20
30467;DHT22;17258;52.560;13.046;2023-08-06T09:39:51;24.00;57.20
30467;DHT22;17258;52.560;13.046;2023-08-06T09:49:53;24.00;57.30
30467;DHT22;17258;52.560;13.046;2023-08-06T09:59:56;23.90;57.40
30467;DHT22;17258;52.560;13.046;2023-08-06T10:09:58;23.90;57.70
30467;DHT22;17258;52.560;13.046;2023-08-06T10:20:00;24.00;57.80
30467;DHT22;17258;52.560;13.046;2023-08-06T10:40:26;24.00;58.20
30467;DHT22;17258;52.560;13.046;2023-08-06T10:50:26;24.00;57.80
30467;DHT22;17258;52.560;13.046;2023-08-06T11:00:27;24.10;58.00
30467;DHT22;17258;52.560;13.046;2023-08-06T11:10:28;24.20;58.00
30467;DHT22;17258;52.560;13.046;2023-08-06T11:20:28;24.20;57.90
30467;DHT22;17258;52.560;13.046;2023-08-06T11:30:29;24.30;58.00
30467;DHT22;17258;52.560;13.046;2023-08-06T11:40:30;24.30;57.90
30467;DHT22;17258;52.560;13.046;2023-08-06T11:50:37;24.40;58.10
30467;DHT22;17258;52.560;13.046;2023-08-06T12:00:39;24.50;58.10
30467;DHT22;17258;52.560;13.046;2023-08-06T12:10:39;24.50;57.90
30467;DHT22;17258;52.560;13.046;2023-08-06T12:20:40;24.50;58.10
30467;DHT22;17258;52.560;13.046;2023-08-06T12:30:41;24.50;58.30
30467;DHT22;17258;52.560;13.046;2023-08-06T12:40:44;24.70;58.50
30467;DHT22;17258;52.560;13.046;2023-08-06T12:50:45;24.80;58.40
30467;DHT22;17258;52.560;13.046;2023-08-06T13:00:45;24.90;58.20
30467;DHT22;17258;52.560;13.046;2023-08-06T13:10:46;25.10;58.10
30467;DHT22;17258;52.560;13.046;2023-08-06T13:20:47;25.10;57.90
30467;DHT22;17258;52.560;13.046;2023-08-06T13:30:49;25.20;57.80
30467;DHT22;17258;52.560;13.046;2023-08-06T13:40:51;25.20;57.90
30467;DHT22;17258;52.560;13.046;2023-08-06T13:50:51;25.20;57.90
30467;DHT22;17258;52.560;13.046;2023-08-06T14:00:55;25.30;57.80
30467;DHT22;17258;52.560;13.046;2023-08-06T14:10:57;25.20;57.40
30467;DHT22;17258;52.560;13.046;2023-08-06T14:20:57;25.10;56.90
30467;DHT22;17258;52.560;13.046;2023-08-06T14:30:58;24.80;57.00
30467;DHT22;17258;52.560;13.046;2023-08-06T14:41:05;24.50;57.20
30467;DHT22;17258;52.560;13.046;2023-08-06T14:51:06;24.20;57.60
30467;DHT22;17258;52.560;13.046;2023-08-06T15:01:07;24.10;58.00
30467;DHT22;17258;52.560;13.046;2023-08-06T15:11:08;24.00;58.30
30467;DHT22;17258;52.560;13.046;2023-08-06T15:21:10;24.00;58.50
30467;DHT22;17258;52.560;13.046;2023-08-06T15:31:11;24.00;58.80
30467;DHT22;17258;52.560;13.046;2023-08-06T15:41:11;24.00;59.10
30467;DHT22;17258;52.560;13.046;2023-08-06T15:51:12;24.00;58.90
30467;DHT22;17258;52.560;13.046;2023-08-06T16:01:12;24.00;58.90
30467;DHT22;17258;52.560;13.046;2023-08-06T16:11:14;24.00;58.60
30467;DHT22;17258;52.560;13.046;2023-08-06T16:21:15;24.00;58.50
30467;DHT22;17258;52.560;13.046;2023-08-06T16:31:15;23.90;58.50
30467;DHT22;17258;52.560;13.046;2023-08-06T16:41:16;23.80;58.60
30467;DHT22;17258;52.560;13.046;2023-08-06T16:51:18;23.70;58.60
30467;DHT22;17258;52.560;13.046;2023-08-06T17:01:19;23.70;58.70
30467;DHT22;17258;52.560;13.046;2023-08-06T17:11:19;23.60;58.70
30467;DHT22;17258;52.560;13.046;2023-08-06T17:21:20;23.50;58.70
30467;DHT22;17258;52.560;13.046;2023-08-06T17:31:20;23.40;58.90
30467;DHT22;17258;52.560;13.046;2023-08-06T17:41:21;23.40;59.10
30467;DHT22;17258;52.560;13.046;2023-08-06T17:51:22;23.40;59.10
30467;DHT22;17258;52.560;13.046;2023-08-06T18:01:23;23.40;59.20
30467;DHT22;17258;52.560;13.046;2023-08-06T18:11:24;23.30;59.10
30467;DHT22;17258;52.560;13.046;2023-08-06T18:21:25;23.30;59.10
30467;DHT22;17258;52.560;13.046;2023-08-06T18:31:25;23.20;59.00
30467;DHT22;17258;52.560;13.046;2023-08-06T18:41:26;23.20;58.90
30467;DHT22;17258;52.560;13.046;2023-08-06T18:51:27;23.10;59.00
30467;DHT22;17258;52.560;13.046;2023-08-06T19:01:27;23.00;59.00
30467;DHT22;17258;52.560;13.046;2023-08-06T19:11:28;22.90;59.00
30467;DHT22;17258;52.560;13.046;2023-08-06T19:21:28;22.80;59.10
30467;DHT22;17258;52.560;13.046;2023-08-06T19:31:29;22.70;59.20
30467;DHT22;17258;52.560;13.046;2023-08-06T19:41:30;22.60;59.30
30467;DHT22;17258;52.560;13.046;2023-08-06T19:51:30;22.60;59.40
30467;DHT22;17258;52.560;13.046;2023-08-06T20:01:31;22.50;59.50
30467;DHT22;17258;52.560;13.046;2023-08-06T20:11:32;22.50;59.60
30467;DHT22;17258;52.560;13.046;2023-08-06T20:21:32;22.40;59.60
30467;DHT22;17258;52.560;13.046;2023-08-06T20:31:33;22.40;59.60
30467;DHT22;17258;52.560;13.046;2023-08-06T20:41:34;22.30;59.70
30467;DHT22;17258;52.560;13.046;2023-08-06T20:51:34;22.30;59.70
30467;DHT22;17258;52.560;13.046;2023-08-06T21:01:35;22.20;59.80
30467;DHT22;17258;52.560;13.046;2023-08-06T21:11:35;22.10;59.70
30467;DHT22;17258;52.560;13.046;2023-08-06T21:21:36;22.00;59.70
30467;DHT22;17258;52.560;13.046;2023-08-06T21:31:37;21.90;59.60
30467;DHT22;17258;52.560;13.046;2023-08-06T21:41:37;21.80;59.70
30467;DHT22;17258;52.560;13.046;2023-08-06T21:51:38;21.70;59.50
30467;DHT22;17258;52.560;13.046;2023-08-06T22:01:39;21.50;59.40
30467;DHT22;17258;52.560;13.046;2023-08-06T22:11:39;21.50;59.60
30467;DHT22;17258;52.560;13.046;2023-08-06T22:21:40;21.30;59.60
30467;DHT22;17258;52.560;13.046;2023-08-06T22:31:41;21.20;59.60
30467;DHT22;17258;52.560;13.046;2023-08-06T22:41:41;21.10;59.70
30467;DHT22;17258;52.560;13.046;2023-08-06T22:51:42;21.10;59.80
30467;DHT22;17258;52.560;13.046;2023-08-06T23:01:42;20.90;59.80
30467;DHT22;17258;52.560;13.046;2023-08-06T23:11:43;20.90;59.80
30467;DHT22;17258;52.560;13.046;2023-08-06T23:21:44;20.80;59.90
30467;DHT22;17258;52.560;13.046;2023-08-06T23:31:45;20.70;60.00
30467;DHT22;17258;52.560;13.046;2023-08-06T23:41:46;20.70;60.00
30467;DHT22;17258;52.560;13.046;2023-08-06T23:51:46;20.60;59.90
